Yorkville, NY (13495)

4:57 PM EST on November 27, 2014 (GMT -0500)
Harts Hill | Change Station
CLOSE
Current Station
Personal Weather Station
Location: Whitesboro, NY
Elevation: 682 ft
Nearby Weather Stations

Elev 682 ft 43.11 °N, 75.32 °W | Updated 15 seconds ago

Snow
Snow
28.0 °F
Feels Like 28 °F
N
0.0
Wind Variable Wind from West
Gusts 0.0 mph

Today
High -- | Low -- °F
--% Chance of Precip.
Yesterday
High -- | Low -- °F
Precip. -- in
7:08 AM 4:28 PM
Waxing Crescent, 33% visible
Pressure 30.06 in
Visibility 1.8 miles
Clouds Mostly Cloudy 700 ft
Overcast 1700 ft
Windchill 28 °F
Dew Point 27 °F
Humidity 94%
Rainfall 0.00 in
Snow Depth Not available.
UV 0 out of 12
Pollen .10 out of 12
Air Quality Not available.
Flu Activity Not available.
METAR KRME 272153Z 27006KT 1 3/4SM -SN BR BKN007 OVC017 M02/M03 A3005 RMK AO2 CIG 006V010 SLP180 P0000 T10171028

More Conditions Fewer Conditions

Pressure 30.06 in
Visibility 1.8 miles
Clouds Mostly Cloudy 700 ft
Overcast 1700 ft
Windchill 28 °F
Dew Point 27 °F
Humidity 94%
Rainfall 0.00 in
Snow Depth Not available.
UV 0 out of 12
Pollen .10 out of 12
Air Quality Not available.
Flu Activity Not available.
METAR KRME 272153Z 27006KT 1 3/4SM -SN BR BKN007 OVC017 M02/M03 A3005 RMK AO2 CIG 006V010 SLP180 P0000 T10171028

More Conditions Fewer Conditions

Nowcast | as of 4:13 PM EST on November 27, 2014

Flurries and scattered snow showers will be over the region through 9 PM. Accumulations will be light...ranging from a dusting to an inch.

×

10-Day Weather Forecast

Almanac

Astronomy

Nov. 27, 2014 Rise Set
Actual Time
Civil Twilight
Nautical Twilight
Astronomical Twilight
Moon
Length of Visible Light
Length of Day
Tomorrow will be .
, % of the Moon is Illuminated

Today's Extremes

State Highs State Lows

Community

WunderPhotos

Upload Photos

1,774,115 photos uploaded!

WunderBlogs® & News

Nearby

Air Quality

  Air Quality AQ Index Pollutant
Not available.

Snow Depth

Station Depth Elevation

Earthquake Activity

City Distance Mag. Time & Date
Minimum magnitude displayed is 2.5.

Coastal Water Temperatures

Place Temperature

Nearby Weather Stations